Stanhope, New Jersey
Current Conditions -  °F | °C
As of 1:53 PM on Friday 28 Nov 2014 (Local Time) from KSMQ Reporting Station
Clear Clear  
Wind Chill: -3°   Ceiling: Unl
Heat Index:   Visibility: 10mi
Dew Point: -9°   Wind: 14mph
Humidity: 44%   Direction: 310°NW
Pressure: 30.18"   Gusts: 24mph
Location:  40.9°N, 74.71°W
Report Text: KSMQ 281853Z AUTO 31012G21KT 10SM CLR 02/M09 A3018 RMK AO2 SLP221 T00171094
Loading
Personal Weather Stations






























Interactive Weather Map New forecast layout! Learn more

10-Day Weather Forecast

Advertisements
Track Severe Weather on mobile